Mc Call Municipal Airport Mc Call US
ICAO: KMYL
IATA: MYL
Category: Medium
Scheduled Services: No

Elevation: 5024 ft
TransAlt. 18000 ft.

Airport Communications:
ASOS:119.925
SALT LAKE CITY CNTR:128.05
BOISE RDO:122.35
CTAF/UNICOM:122.8

KMYL Zoom In..

Runways:

(A) RW 16 length 6108 ft width 75 ft
---- / hdg 162

(B) RW 34 length 6108 ft width 75 ft
---- / hdg 342

Location; KMYL
Day. 24 / Time. 12.51 Zulu
* Altimeter: 30.04
* Temperature: 12° c. 53.6°f.
* Wind from: 000° Speed 00 kn.
Dewpoint: 10° c.
Visibility: 10 Statute Miles.
Clouds: Overcast 5500 ft.

KMYL 241251Z AUTO 00000KT 10SM OVC055 12/10 A3004 RMK AO2 SLP141 T01170100


Wind - Calm.

 
 
jpsmedia.com for Web Design SOUNDCLOUD worldairports.se 2018   terms of use